createdAt,value
2022-10-03T00:01:16.307Z,7.90
2022-10-03T00:05:31.142Z,7.95
2022-10-03T00:08:59.090Z,8.23
2022-10-03T00:12:52.627Z,7.97
2022-10-03T00:16:19.439Z,9.20
2022-10-03T00:20:21.724Z,8.20
2022-10-03T00:24:03.689Z,8.27
2022-10-03T00:27:34.228Z,8.90
2022-10-03T00:31:01.966Z,10.38
2022-10-03T00:35:03.030Z,8.55
2022-10-03T00:39:09.190Z,9.13
2022-10-03T00:42:54.441Z,9.02
2022-10-03T00:46:53.903Z,9.05
2022-10-03T00:50:43.360Z,10.38
2022-10-03T00:54:18.532Z,10.40
2022-10-03T00:57:40.436Z,8.88
2022-10-03T01:01:30.487Z,9.90
2022-10-03T01:05:25.720Z,10.45
2022-10-03T01:08:54.805Z,10.93
2022-10-03T01:12:57.534Z,10.85
2022-10-03T01:16:27.520Z,11.13
2022-10-03T01:19:58.426Z,10.75
2022-10-03T01:23:58.857Z,10.63
2022-10-03T01:28:03.345Z,12.30
2022-10-03T01:31:44.722Z,11.30
2022-10-03T01:35:22.516Z,10.20
2022-10-03T01:39:01.495Z,12.13
2022-10-03T01:43:03.015Z,12.75
2022-10-03T01:46:44.078Z,10.60
2022-10-03T01:50:22.405Z,11.43
2022-10-03T01:53:59.789Z,12.05
2022-10-03T01:57:43.877Z,11.55
2022-10-03T02:01:25.173Z,11.63
2022-10-03T02:05:06.593Z,12.80
2022-10-03T02:08:40.732Z,10.68
2022-10-03T02:12:13.691Z,10.77
2022-10-03T02:16:03.405Z,10.52
2022-10-03T02:19:44.936Z,9.88
2022-10-03T02:23:31.733Z,9.75
2022-10-03T02:27:16.830Z,10.05
2022-10-03T02:31:16.199Z,10.35
2022-10-03T02:35:00.220Z,9.13
2022-10-03T02:38:43.518Z,9.10
2022-10-03T02:42:25.270Z,9.07
2022-10-03T02:49:46.787Z,9.90
2022-10-03T02:53:36.941Z,9.80
2022-10-03T02:57:26.400Z,10.38
2022-10-03T03:01:15.840Z,10.38
2022-10-03T03:04:59.514Z,10.80
2022-10-03T03:08:40.246Z,9.82
2022-10-03T03:12:29.858Z,9.93
2022-10-03T03:16:16.485Z,11.25
2022-10-03T03:20:14.308Z,11.77
2022-10-03T03:23:52.367Z,12.45
2022-10-03T03:27:38.978Z,11.35
2022-10-03T03:31:14.603Z,11.25
2022-10-03T03:34:42.308Z,13.80
2022-10-03T03:38:20.763Z,12.38
2022-10-03T03:41:57.663Z,12.05
2022-10-03T03:45:36.516Z,12.43
2022-10-03T03:49:22.523Z,12.75
2022-10-03T03:53:23.235Z,13.30
2022-10-03T03:57:16.173Z,13.02
2022-10-03T04:00:46.169Z,12.93
2022-10-03T04:04:41.282Z,13.00
2022-10-03T04:08:03.162Z,13.30
2022-10-03T04:11:51.705Z,13.52
2022-10-03T04:15:24.540Z,12.50
2022-10-03T04:19:00.152Z,12.93
2022-10-03T04:22:24.931Z,11.88
2022-10-03T04:25:54.770Z,12.68
2022-10-03T04:29:30.111Z,12.32
2022-10-03T04:33:10.881Z,11.95
2022-10-03T04:37:03.680Z,12.27
2022-10-03T04:41:03.118Z,12.10
2022-10-03T04:44:43.210Z,11.85
2022-10-03T04:48:36.043Z,11.20
2022-10-03T04:52:07.117Z,11.88
2022-10-03T04:56:02.956Z,12.00
2022-10-03T04:59:29.470Z,11.35
2022-10-03T05:03:01.579Z,10.60
2022-10-03T05:06:48.701Z,11.63
2022-10-03T05:10:50.722Z,10.52
2022-10-03T05:18:09.337Z,10.95
2022-10-03T05:21:48.928Z,11.10
2022-10-03T05:25:16.635Z,11.13
2022-10-03T05:29:16.315Z,12.68
2022-10-03T05:33:08.914Z,12.90
2022-10-03T05:37:06.595Z,11.77
2022-10-03T05:40:33.810Z,12.38
2022-10-03T05:44:04.521Z,12.05
2022-10-03T05:47:55.551Z,9.52
2022-10-03T05:51:47.881Z,9.30
2022-10-03T05:55:42.570Z,11.50
2022-10-03T05:59:10.619Z,9.57
2022-10-03T06:02:38.152Z,15.45
2022-10-03T06:06:12.595Z,12.13
2022-10-03T06:10:11.392Z,14.30
2022-10-03T06:14:20.720Z,17.45
2022-10-03T06:17:54.587Z,12.45
2022-10-03T06:21:41.212Z,11.30
2022-10-03T06:25:22.017Z,10.93
2022-10-03T06:28:56.404Z,8.02
2022-10-03T06:32:21.397Z,6.80
2022-10-03T06:36:20.863Z,5.50
2022-10-03T06:39:52.165Z,5.13
2022-10-03T06:43:31.111Z,4.72
2022-10-03T06:47:05.089Z,4.63
2022-10-03T06:50:51.654Z,5.68
2022-10-03T06:54:34.745Z,5.65
2022-10-03T06:58:07.644Z,6.35
2022-10-03T07:01:48.620Z,5.32
2022-10-03T07:05:10.635Z,5.60
2022-10-03T07:09:02.382Z,6.10
2022-10-03T07:12:54.206Z,7.05
2022-10-03T07:16:28.273Z,5.03
2022-10-03T07:20:11.762Z,4.50
2022-10-03T07:24:03.485Z,4.93
2022-10-03T07:27:50.790Z,3.70
2022-10-03T07:31:37.860Z,3.95
2022-10-03T07:35:56.087Z,3.53
2022-10-03T07:39:46.178Z,3.45
2022-10-03T07:43:49.685Z,3.10
2022-10-03T07:47:36.058Z,3.95
2022-10-03T07:51:10.247Z,4.22
2022-10-03T07:54:47.244Z,3.67
2022-10-03T07:58:34.781Z,3.60
2022-10-03T08:02:18.091Z,3.08
2022-10-03T08:06:01.797Z,3.85
2022-10-03T08:09:57.563Z,4.43
2022-10-03T08:13:22.755Z,3.90
2022-10-03T08:17:13.879Z,4.15
2022-10-03T08:20:55.374Z,4.70
2022-10-03T08:24:41.284Z,4.40
2022-10-03T08:28:25.008Z,5.43
2022-10-03T08:32:23.594Z,4.68
2022-10-03T08:36:26.888Z,5.90
2022-10-03T08:40:00.879Z,5.75
2022-10-03T08:43:41.313Z,5.38
2022-10-03T08:47:25.260Z,5.70
2022-10-03T08:51:07.894Z,5.43
2022-10-03T08:54:50.928Z,5.97
2022-10-03T08:58:25.345Z,5.03
2022-10-03T09:01:50.375Z,4.80
2022-10-03T09:05:58.910Z,3.63
2022-10-03T09:09:39.287Z,4.03
2022-10-03T09:13:25.885Z,3.80
2022-10-03T09:17:01.628Z,3.40
2022-10-03T09:20:57.079Z,4.10
2022-10-03T09:24:25.423Z,3.17
2022-10-03T09:27:56.492Z,2.97
2022-10-03T09:31:27.901Z,3.70
2022-10-03T09:35:07.626Z,3.63
2022-10-03T09:38:59.864Z,3.97
2022-10-03T09:42:52.390Z,3.05
2022-10-03T09:46:17.514Z,3.38
2022-10-03T09:50:10.616Z,3.83
2022-10-03T09:53:32.590Z,3.45
2022-10-03T09:57:09.277Z,3.70
2022-10-03T10:01:02.468Z,3.85
2022-10-03T10:05:01.130Z,3.38
2022-10-03T10:08:32.017Z,2.55
2022-10-03T10:12:12.291Z,3.60
2022-10-03T10:15:55.763Z,3.03
2022-10-03T10:19:44.599Z,2.80
2022-10-03T10:23:17.897Z,3.47
2022-10-03T10:26:54.095Z,2.97
2022-10-03T10:30:31.542Z,3.00
2022-10-03T10:34:14.694Z,2.65
2022-10-03T10:38:15.488Z,2.35
2022-10-03T10:41:37.553Z,2.60
2022-10-03T10:45:24.252Z,3.08
2022-10-03T10:49:04.997Z,3.13
2022-10-03T10:56:27.340Z,3.00
2022-10-03T11:00:15.132Z,2.67
2022-10-03T11:04:01.531Z,2.75
2022-10-03T11:08:02.801Z,2.80
2022-10-03T11:11:47.781Z,2.63
2022-10-03T11:15:28.205Z,2.78
2022-10-03T11:19:13.133Z,3.00
2022-10-03T11:22:53.842Z,2.13
2022-10-03T11:30:13.818Z,2.00
2022-10-03T11:34:00.534Z,2.92
2022-10-03T11:37:42.061Z,2.50
2022-10-03T11:41:04.089Z,2.28
2022-10-03T11:44:31.054Z,2.05
2022-10-03T11:48:05.905Z,3.95
2022-10-03T11:52:15.241Z,2.75
2022-10-03T11:56:03.499Z,2.22
2022-10-03T11:59:34.185Z,2.33
2022-10-03T12:03:19.878Z,2.50
2022-10-03T12:07:21.811Z,2.45
2022-10-03T12:14:32.443Z,2.10
2022-10-03T12:18:00.264Z,2.28
2022-10-03T12:21:57.174Z,2.20
2022-10-03T12:25:36.959Z,2.50
2022-10-03T12:29:00.713Z,2.63
2022-10-03T12:32:39.667Z,2.65
2022-10-03T12:36:04.812Z,3.08
2022-10-03T12:39:45.360Z,4.38
2022-10-03T12:43:16.099Z,5.15
2022-10-03T12:47:51.069Z,5.78
2022-10-03T12:51:42.591Z,4.05
2022-10-03T12:55:13.510Z,7.00
2022-10-03T12:58:38.501Z,7.38
2022-10-03T13:02:35.626Z,5.47
2022-10-03T13:06:30.023Z,8.00
2022-10-03T13:10:25.627Z,8.40
2022-10-03T13:14:11.243Z,8.82
2022-10-03T13:17:49.602Z,9.52
2022-10-03T13:25:11.044Z,7.80
2022-10-03T13:28:44.208Z,9.35
2022-10-03T13:32:42.471Z,9.10
2022-10-03T13:36:43.449Z,9.02
2022-10-03T13:40:10.645Z,12.50
2022-10-03T13:43:37.836Z,11.38
2022-10-03T13:47:37.059Z,12.02
2022-10-03T13:51:17.471Z,12.25
2022-10-03T13:55:05.516Z,12.38
2022-10-03T13:58:44.069Z,12.13
2022-10-03T14:02:12.684Z,11.40
2022-10-03T14:06:07.157Z,12.20
2022-10-03T14:09:58.027Z,11.90
2022-10-03T14:13:39.833Z,12.38
2022-10-03T14:17:10.102Z,12.25
2022-10-03T14:24:27.630Z,12.60
2022-10-03T14:28:14.789Z,15.70
2022-10-03T14:32:46.900Z,13.15
2022-10-03T14:36:29.092Z,13.60
2022-10-03T14:40:11.239Z,15.70
2022-10-03T14:43:40.379Z,16.30
2022-10-03T14:47:08.346Z,15.10
2022-10-03T14:50:31.804Z,17.13
2022-10-03T14:53:56.464Z,16.45
2022-10-03T14:57:47.899Z,15.88
2022-10-03T15:01:24.511Z,17.17
2022-10-03T15:04:47.356Z,17.17
2022-10-03T15:08:17.583Z,17.73
2022-10-03T15:12:01.961Z,17.77
2022-10-03T15:15:31.545Z,16.77
2022-10-03T15:19:07.020Z,17.85
2022-10-03T15:22:42.408Z,16.63
2022-10-03T15:26:11.926Z,18.27
2022-10-03T15:29:34.710Z,19.30
2022-10-03T15:33:07.374Z,19.67
2022-10-03T15:36:37.537Z,17.92
2022-10-03T15:40:04.534Z,18.75
2022-10-03T15:43:37.034Z,18.08
2022-10-03T15:47:05.052Z,18.15
2022-10-03T15:50:34.357Z,26.52
2022-10-03T15:53:59.568Z,21.10
2022-10-03T15:57:27.968Z,20.65
2022-10-03T16:01:01.734Z,17.63
2022-10-03T16:04:27.422Z,18.30
2022-10-03T16:07:55.342Z,17.70
2022-10-03T16:11:43.421Z,17.10
2022-10-03T16:15:29.752Z,17.23
2022-10-03T16:19:19.278Z,18.67
2022-10-03T16:22:45.521Z,17.33
2022-10-03T16:26:14.254Z,18.27
2022-10-03T16:29:38.716Z,19.00
2022-10-03T16:33:18.680Z,17.77
2022-10-03T16:37:00.259Z,19.07
2022-10-03T16:40:24.435Z,17.90
2022-10-03T16:43:57.029Z,19.10
2022-10-03T16:47:30.472Z,19.30
2022-10-03T16:50:54.428Z,19.85
2022-10-03T16:54:20.074Z,19.98
2022-10-03T16:57:52.722Z,19.80
2022-10-03T17:02:01.143Z,19.88
2022-10-03T17:05:24.711Z,20.80
2022-10-03T17:08:52.204Z,19.55
2022-10-03T17:12:37.352Z,18.77
2022-10-03T17:16:06.318Z,18.60
2022-10-03T17:19:33.852Z,20.05
2022-10-03T17:23:01.982Z,19.10
2022-10-03T17:26:42.833Z,20.13
2022-10-03T17:33:47.007Z,20.15
2022-10-03T17:40:51.621Z,21.17
2022-10-03T17:44:35.070Z,21.05
2022-10-03T17:48:05.238Z,22.52
2022-10-03T17:51:32.734Z,20.88
2022-10-03T17:55:04.625Z,21.65
2022-10-03T17:58:29.903Z,23.48
2022-10-03T18:01:57.499Z,24.05
2022-10-03T18:05:43.340Z,22.52
2022-10-03T18:09:40.581Z,23.05
2022-10-03T18:13:07.137Z,23.35
2022-10-03T18:16:39.002Z,25.10
2022-10-03T18:20:26.241Z,24.13
2022-10-03T18:24:12.325Z,23.42
2022-10-03T18:27:54.252Z,24.35
2022-10-03T18:31:22.284Z,24.80
2022-10-03T18:34:48.758Z,27.13
2022-10-03T18:38:24.136Z,26.35
2022-10-03T18:41:53.120Z,26.30
2022-10-03T18:45:27.470Z,29.00
2022-10-03T18:53:07.214Z,25.85
2022-10-03T18:56:30.078Z,26.35
2022-10-03T19:00:18.396Z,25.67
2022-10-03T19:03:49.838Z,25.92
2022-10-03T19:07:29.865Z,24.35
2022-10-03T19:11:22.073Z,26.47
2022-10-03T19:15:14.730Z,25.17
2022-10-03T19:19:01.075Z,22.83
2022-10-03T19:22:37.190Z,25.33
2022-10-03T19:26:05.147Z,25.58
2022-10-03T19:29:35.910Z,24.80
2022-10-03T19:33:07.797Z,25.42
2022-10-03T19:36:34.694Z,25.23
2022-10-03T19:39:58.054Z,26.67
2022-10-03T19:43:50.138Z,24.45
2022-10-03T19:47:20.635Z,23.48
2022-10-03T19:50:42.767Z,22.77
2022-10-03T19:54:13.532Z,21.60
2022-10-03T19:57:40.794Z,20.95
2022-10-03T20:01:08.878Z,20.42
2022-10-03T20:04:36.904Z,22.27
2022-10-03T20:08:23.662Z,20.30
2022-10-03T20:11:47.572Z,21.27
2022-10-03T20:15:22.188Z,20.25
2022-10-03T20:18:46.982Z,21.27
2022-10-03T20:22:14.026Z,22.52
2022-10-03T20:25:38.295Z,19.92
2022-10-03T20:29:09.443Z,20.88
2022-10-03T20:32:34.394Z,19.20
2022-10-03T20:35:56.484Z,21.05
2022-10-03T20:39:27.949Z,20.67
2022-10-03T20:42:52.036Z,20.13
2022-10-03T20:46:35.955Z,20.45
2022-10-03T20:50:20.338Z,20.83
2022-10-03T20:53:42.718Z,20.42
2022-10-03T20:57:07.496Z,22.35
2022-10-03T21:00:31.205Z,20.70
2022-10-03T21:04:14.068Z,21.10
2022-10-03T21:07:59.409Z,22.25
2022-10-03T21:11:31.134Z,21.08
2022-10-03T21:15:17.686Z,22.27
2022-10-03T21:18:44.858Z,21.13
2022-10-03T21:22:12.358Z,20.77
2022-10-03T21:25:37.897Z,21.48
2022-10-03T21:29:24.659Z,21.88
2022-10-03T21:33:11.723Z,21.95
2022-10-03T21:36:37.170Z,20.55
2022-10-03T21:40:20.190Z,22.95
2022-10-03T21:43:53.955Z,23.02
2022-10-03T21:47:30.310Z,20.92
2022-10-03T21:50:59.978Z,21.80
2022-10-03T21:54:27.961Z,22.25
2022-10-03T21:58:05.062Z,22.90
2022-10-03T22:01:53.336Z,21.25
2022-10-03T22:05:22.454Z,21.27
2022-10-03T22:08:47.849Z,23.15
2022-10-03T22:12:10.965Z,21.70
2022-10-03T22:16:01.896Z,20.92
2022-10-03T22:19:38.535Z,21.48
2022-10-03T22:23:03.325Z,21.77
2022-10-03T22:27:04.391Z,20.83
2022-10-03T22:30:27.624Z,20.73
2022-10-03T22:34:04.681Z,22.63
2022-10-03T22:37:27.017Z,21.95
2022-10-03T22:40:51.246Z,20.77
2022-10-03T22:44:16.519Z,20.88
2022-10-03T22:47:39.843Z,21.98
2022-10-03T22:51:05.851Z,20.23
2022-10-03T22:54:40.889Z,21.55
2022-10-03T22:58:05.108Z,21.38
2022-10-03T23:01:29.241Z,20.95
2022-10-03T23:04:56.574Z,20.98
2022-10-03T23:08:24.072Z,20.23
2022-10-03T23:11:49.691Z,20.85
2022-10-03T23:15:16.774Z,20.20
2022-10-03T23:18:47.570Z,21.17
2022-10-03T23:22:23.443Z,21.75
2022-10-03T23:26:08.324Z,20.90
2022-10-03T23:29:30.309Z,19.83
2022-10-03T23:32:54.656Z,20.08
2022-10-03T23:36:19.696Z,19.75
2022-10-03T23:40:07.430Z,19.85
2022-10-03T23:43:39.278Z,20.55
2022-10-03T23:47:03.596Z,20.67
2022-10-03T23:50:44.222Z,19.90
2022-10-03T23:54:11.076Z,19.35
2022-10-03T23:57:40.423Z,19.80
